createdAt,value
2023-09-27T00:01:27.280Z,100470.97
2023-09-27T00:04:30.447Z,100472.66
2023-09-27T00:07:33.508Z,100474.63
2023-09-27T00:10:37.750Z,100470.97
2023-09-27T00:13:40.657Z,100464.06
2023-09-27T00:16:43.756Z,100470.97
2023-09-27T00:19:46.772Z,100470.13
2023-09-27T00:22:50.801Z,100471.50
2023-09-27T00:25:55.074Z,100469.69
2023-09-27T00:28:57.920Z,100472.34
2023-09-27T00:32:00.819Z,100465.06
2023-09-27T00:35:05.248Z,100469.69
2023-09-27T00:38:09.228Z,100464.47
2023-09-27T00:41:13.598Z,100462.91
2023-09-27T00:44:16.498Z,100467.28
2023-09-27T00:47:19.447Z,100468.38
2023-09-27T00:50:22.439Z,100461.22
2023-09-27T00:53:26.352Z,100467.81
2023-09-27T00:56:30.888Z,100467.53
2023-09-27T00:59:34.620Z,100470.34
2023-09-27T01:02:37.700Z,100469.38
2023-09-27T01:05:40.670Z,100467.81
2023-09-27T01:08:43.636Z,100469.66
2023-09-27T01:11:49.258Z,100469.81
2023-09-27T01:14:52.156Z,100474.16
2023-09-27T01:17:55.818Z,100467.22
2023-09-27T01:20:58.633Z,100465.28
2023-09-27T01:24:02.836Z,100466.41
2023-09-27T01:27:07.614Z,100463.72
2023-09-27T01:30:11.058Z,100465.84
2023-09-27T01:33:14.440Z,100467.53
2023-09-27T01:36:17.278Z,100461.56
2023-09-27T01:39:21.496Z,100470.34
2023-09-27T01:42:24.326Z,100475.94
2023-09-27T01:45:27.124Z,100466.22
2023-09-27T01:48:30.128Z,100470.88
2023-09-27T01:51:32.983Z,100470.19
2023-09-27T01:54:37.149Z,100467.50
2023-09-27T01:57:40.136Z,100467.50
2023-09-27T02:00:42.985Z,100476.38
2023-09-27T02:03:45.972Z,100471.03
2023-09-27T02:06:48.957Z,100469.44
2023-09-27T02:09:53.250Z,100477.59
2023-09-27T02:12:56.070Z,100468.72
2023-09-27T02:15:58.993Z,100476.06
2023-09-27T02:19:05.372Z,100470.84
2023-09-27T02:22:09.446Z,100478.09
2023-09-27T02:25:14.506Z,100473.88
2023-09-27T02:28:17.564Z,100479.94
2023-09-27T02:31:20.418Z,100476.41
2023-09-27T02:34:23.245Z,100476.41
2023-09-27T02:37:26.662Z,100474.88
2023-09-27T02:40:30.812Z,100480.94
2023-09-27T02:43:33.770Z,100483.16
2023-09-27T02:46:36.552Z,100484.72
2023-09-27T02:49:39.380Z,100484.13
2023-09-27T02:52:42.353Z,100485.13
2023-09-27T02:55:46.704Z,100483.44
2023-09-27T02:58:49.545Z,100483.66
2023-09-27T03:01:52.317Z,100480.88
2023-09-27T03:04:55.183Z,100476.63
2023-09-27T03:07:58.429Z,100478.59
2023-09-27T03:11:06.074Z,100478.75
2023-09-27T03:14:09.007Z,100483.25
2023-09-27T03:17:12.339Z,100479.00
2023-09-27T03:20:18.194Z,100480.81
2023-09-27T03:23:21.570Z,100477.06
2023-09-27T03:26:26.081Z,100486.31
2023-09-27T03:29:28.953Z,100489.13
2023-09-27T03:32:33.222Z,100487.44
2023-09-27T03:35:36.440Z,100487.28
2023-09-27T03:38:40.165Z,100495.47
2023-09-27T03:41:44.352Z,100492.19
2023-09-27T03:44:48.275Z,100493.88
2023-09-27T03:47:51.298Z,100495.84
2023-09-27T03:50:54.206Z,100491.19
2023-09-27T03:53:57.974Z,100488.66
2023-09-27T03:57:02.230Z,100497.66
2023-09-27T04:00:08.509Z,100495.13
2023-09-27T04:03:11.399Z,100509.34
2023-09-27T04:06:14.293Z,100501.31
2023-09-27T04:09:17.225Z,100503.00
2023-09-27T04:12:21.434Z,100500.47
2023-09-27T04:15:24.356Z,100498.78
2023-09-27T04:18:27.199Z,100494.28
2023-09-27T04:21:30.143Z,100495.13
2023-09-27T04:24:33.192Z,100502.31
2023-09-27T04:27:37.379Z,100495.13
2023-09-27T04:30:40.226Z,100492.56
2023-09-27T04:33:45.633Z,100494.41
2023-09-27T04:36:48.452Z,100495.97
2023-09-27T04:39:51.334Z,100496.22
2023-09-27T04:42:55.600Z,100486.97
2023-09-27T04:45:58.433Z,100490.50
2023-09-27T04:49:01.371Z,100492.88
2023-09-27T04:52:04.361Z,100496.69
2023-09-27T04:55:08.473Z,100493.88
2023-09-27T04:58:12.705Z,100493.03
2023-09-27T05:01:15.555Z,100499.09
2023-09-27T05:04:18.444Z,100498.97
2023-09-27T05:07:21.501Z,100497.84
2023-09-27T05:10:24.385Z,100496.88
2023-09-27T05:13:28.776Z,100493.34
2023-09-27T05:16:37.217Z,100499.53
2023-09-27T05:19:40.037Z,100498.44
2023-09-27T05:22:43.192Z,100501.13
2023-09-27T05:25:46.319Z,100503.66
2023-09-27T05:28:50.574Z,100507.31
2023-09-27T05:31:53.663Z,100514.22
2023-09-27T05:34:56.739Z,100515.06
2023-09-27T05:38:00.285Z,100518.59
2023-09-27T05:41:03.502Z,100509.56
2023-09-27T05:44:08.175Z,100503.38
2023-09-27T05:47:11.372Z,100510.41
2023-09-27T05:50:14.829Z,100504.81
2023-09-27T05:53:18.934Z,100511.88
2023-09-27T05:56:21.829Z,100509.06
2023-09-27T05:59:26.719Z,100509.91
2023-09-27T06:02:32.877Z,100516.09
2023-09-27T06:05:36.117Z,100517.66
2023-09-27T06:08:38.978Z,100523.88
2023-09-27T06:11:41.900Z,100525.56
2023-09-27T06:14:46.186Z,100524.56
2023-09-27T06:17:50.268Z,100527.25
2023-09-27T06:20:53.479Z,100530.78
2023-09-27T06:23:56.264Z,100533.44
2023-09-27T06:26:59.310Z,100527.09
2023-09-27T06:30:05.178Z,100534.16
2023-09-27T06:33:08.059Z,100530.56
2023-09-27T06:36:11.695Z,100532.25
2023-09-27T06:39:14.807Z,100531.97
2023-09-27T06:42:17.661Z,100538.16
2023-09-27T06:45:22.080Z,100532.66
2023-09-27T06:48:25.548Z,100533.53
2023-09-27T06:51:28.546Z,100539.59
2023-09-27T06:54:31.446Z,100538.75
2023-09-27T06:57:34.285Z,100544.94
2023-09-27T07:00:38.493Z,100540.44
2023-09-27T07:03:41.635Z,100534.81
2023-09-27T07:06:44.540Z,100534.81
2023-09-27T07:09:47.412Z,100546.13
2023-09-27T07:12:50.198Z,100546.97
2023-09-27T07:15:55.681Z,100544.28
2023-09-27T07:19:00.818Z,100550.34
2023-09-27T07:22:09.483Z,100545.97
2023-09-27T07:25:17.478Z,100545.97
2023-09-27T07:28:20.351Z,100547.66
2023-09-27T07:31:24.650Z,100540.47
2023-09-27T07:34:27.897Z,100545.00
2023-09-27T07:37:33.645Z,100545.00
2023-09-27T07:40:36.541Z,100547.66
2023-09-27T07:43:40.292Z,100547.66
2023-09-27T07:46:45.585Z,100553.84
2023-09-27T07:49:48.382Z,100545.84
2023-09-27T07:52:51.217Z,100547.53
2023-09-27T07:55:54.515Z,100543.03
2023-09-27T07:58:57.831Z,100541.31
2023-09-27T08:02:02.483Z,100540.38
2023-09-27T08:05:10.645Z,100540.22
2023-09-27T08:08:13.849Z,100538.41
2023-09-27T08:11:18.221Z,100542.06
2023-09-27T08:14:23.083Z,100541.06
2023-09-27T08:17:27.699Z,100534.88
2023-09-27T08:20:30.662Z,100537.56
2023-09-27T08:23:33.860Z,100540.09
2023-09-27T08:26:36.728Z,100533.88
2023-09-27T08:29:39.668Z,100532.06
2023-09-27T08:32:44.325Z,100526.72
2023-09-27T08:35:48.013Z,100525.88
2023-09-27T08:38:50.973Z,100523.88
2023-09-27T08:41:56.207Z,100524.72
2023-09-27T08:45:00.139Z,100530.94
2023-09-27T08:48:05.933Z,100535.19
2023-09-27T08:51:08.881Z,100531.53
2023-09-27T08:54:13.334Z,100534.19
2023-09-27T08:57:16.589Z,100526.16
2023-09-27T09:00:23.112Z,100525.03
2023-09-27T09:03:28.094Z,100513.50
2023-09-27T09:06:31.304Z,100517.00
2023-09-27T09:09:34.873Z,100513.25
2023-09-27T09:12:39.240Z,100518.59
2023-09-27T09:15:43.142Z,100514.19
2023-09-27T09:18:49.242Z,100514.94
2023-09-27T09:22:04.091Z,100504.22
2023-09-27T09:25:07.914Z,100505.06
2023-09-27T09:28:10.782Z,100505.91
2023-09-27T09:31:23.017Z,100499.41
2023-09-27T09:34:27.234Z,100495.75
2023-09-27T09:37:31.066Z,100503.69
2023-09-27T09:40:35.336Z,100488.47
2023-09-27T09:43:38.676Z,100489.16
2023-09-27T09:46:41.544Z,100485.63
2023-09-27T09:52:55.057Z,100481.97
2023-09-27T09:56:28.687Z,100484.50
2023-09-27T09:59:27.416Z,100479.88
2023-09-27T10:02:34.978Z,100478.91
2023-09-27T10:05:40.202Z,100475.81
2023-09-27T10:08:44.539Z,100476.22
2023-09-27T10:11:49.170Z,100476.38
2023-09-27T10:14:53.409Z,100474.84
2023-09-27T10:18:16.994Z,100468.88
2023-09-27T10:21:21.189Z,100472.56
2023-09-27T10:24:28.324Z,100466.34
2023-09-27T10:27:45.919Z,100467.19
2023-09-27T10:31:13.450Z,100470.63
2023-09-27T10:34:32.249Z,100459.75
2023-09-27T10:37:53.969Z,100461.44
2023-09-27T10:40:58.121Z,100459.47
2023-09-27T10:44:01.322Z,100456.63
2023-09-27T10:47:04.953Z,100459.19
2023-09-27T10:50:08.234Z,100449.75
2023-09-27T10:53:11.094Z,100448.38
2023-09-27T10:56:16.593Z,100448.50
2023-09-27T10:59:23.971Z,100453.59
2023-09-27T11:02:30.307Z,100442.16
2023-09-27T11:05:33.215Z,100447.53
2023-09-27T11:08:36.134Z,100444.84
2023-09-27T11:11:40.677Z,100443.84
2023-09-27T11:14:45.577Z,100446.53
2023-09-27T11:17:55.887Z,100449.22
2023-09-27T11:21:10.671Z,100437.50
2023-09-27T11:24:13.843Z,100433.03
2023-09-27T11:27:20.780Z,100437.25
2023-09-27T11:30:27.656Z,100427.78
2023-09-27T11:33:35.065Z,100420.75
2023-09-27T11:36:41.541Z,100427.06
2023-09-27T11:39:52.023Z,100426.22
2023-09-27T11:42:56.219Z,100425.38
2023-09-27T11:45:59.402Z,100423.69
2023-09-27T11:49:09.060Z,100426.22
2023-09-27T11:52:12.668Z,100427.06
2023-09-27T11:55:15.677Z,100421.59
2023-09-27T11:58:19.917Z,100420.31
2023-09-27T12:01:22.849Z,100412.28
2023-09-27T12:04:25.908Z,100404.53
2023-09-27T12:07:29.595Z,100402.69
2023-09-27T12:10:32.642Z,100407.09
2023-09-27T12:13:36.910Z,100404.53
2023-09-27T12:16:39.826Z,100404.25
2023-09-27T12:19:42.852Z,100400.59
2023-09-27T12:22:45.761Z,100396.91
2023-09-27T12:25:48.611Z,100402.28
2023-09-27T12:28:52.796Z,100396.66
2023-09-27T12:31:55.750Z,100396.19
2023-09-27T12:34:58.619Z,100386.47
2023-09-27T12:38:05.177Z,100394.50
2023-09-27T12:41:09.411Z,100382.81
2023-09-27T12:44:21.499Z,100386.06
2023-09-27T12:47:25.416Z,100385.59
2023-09-27T12:50:28.975Z,100389.69
2023-09-27T12:53:32.028Z,100386.19
2023-09-27T12:56:34.954Z,100381.81
2023-09-27T12:59:39.240Z,100380.97
2023-09-27T13:02:42.701Z,100381.66
2023-09-27T13:05:45.722Z,100379.13
2023-09-27T13:08:48.685Z,100384.50
2023-09-27T13:11:51.567Z,100374.63
2023-09-27T13:14:57.403Z,100365.59
2023-09-27T13:18:00.553Z,100373.47
2023-09-27T13:21:03.466Z,100369.81
2023-09-27T13:24:06.738Z,100371.50
2023-09-27T13:27:09.706Z,100375.88
2023-09-27T13:30:25.667Z,100376.72
2023-09-27T13:33:36.564Z,100379.41
2023-09-27T13:36:40.632Z,100369.53
2023-09-27T13:39:43.621Z,100373.91
2023-09-27T13:42:46.399Z,100374.75
2023-09-27T13:45:50.601Z,100367.53
2023-09-27T13:48:53.612Z,100371.06
2023-09-27T13:51:57.926Z,100368.25
2023-09-27T13:55:00.807Z,100358.34
2023-09-27T13:58:05.332Z,100366.41
2023-09-27T14:01:10.424Z,100368.13
2023-09-27T14:04:13.347Z,100364.56
2023-09-27T14:07:16.404Z,100364.56
2023-09-27T14:10:19.415Z,100362.75
2023-09-27T14:13:22.263Z,100364.44
2023-09-27T14:16:26.684Z,100369.81
2023-09-27T14:19:29.999Z,100361.75
2023-09-27T14:22:32.776Z,100360.06
2023-09-27T14:25:36.037Z,100361.88
2023-09-27T14:28:40.141Z,100354.84
2023-09-27T14:31:45.545Z,100351.47
2023-09-27T14:34:57.927Z,100350.63
2023-09-27T14:38:01.258Z,100357.66
2023-09-27T14:41:08.502Z,100357.09
2023-09-27T14:44:11.652Z,100361.31
2023-09-27T14:47:15.908Z,100365.13
2023-09-27T14:50:18.816Z,100367.13
2023-09-27T14:53:21.745Z,100362.75
2023-09-27T14:56:24.637Z,100361.88
2023-09-27T14:59:28.032Z,100354.97
2023-09-27T15:02:32.322Z,100357.50
2023-09-27T15:05:35.463Z,100357.66
2023-09-27T15:08:38.898Z,100357.66
2023-09-27T15:11:41.899Z,100358.50
2023-09-27T15:14:45.082Z,100356.53
2023-09-27T15:17:50.082Z,100361.03
2023-09-27T15:20:52.945Z,100358.25
2023-09-27T15:23:55.886Z,100355.94
2023-09-27T15:26:58.924Z,100358.50
2023-09-27T15:30:01.974Z,100368.38
2023-09-27T15:33:06.642Z,100354.41
2023-09-27T15:36:13.017Z,100362.44
2023-09-27T15:39:18.322Z,100354.41
2023-09-27T15:42:21.160Z,100351.88
2023-09-27T15:45:24.526Z,100361.88
2023-09-27T15:48:33.098Z,100363.03
2023-09-27T15:51:38.058Z,100358.34
2023-09-27T15:54:42.971Z,100362.75
2023-09-27T15:57:46.182Z,100363.03
2023-09-27T16:00:49.009Z,100366.00
2023-09-27T16:03:53.449Z,100366.84
2023-09-27T16:06:56.437Z,100370.66
2023-09-27T16:09:59.315Z,100373.22
2023-09-27T16:13:02.163Z,100369.81
2023-09-27T16:16:06.073Z,100377.72
2023-09-27T16:19:10.404Z,100373.47
2023-09-27T16:22:13.227Z,100368.97
2023-09-27T16:25:16.130Z,100376.59
2023-09-27T16:28:20.172Z,100376.31
2023-09-27T16:31:23.798Z,100374.63
2023-09-27T16:34:29.367Z,100373.94
2023-09-27T16:37:32.388Z,100374.88
2023-09-27T16:40:35.303Z,100376.19
2023-09-27T16:43:40.948Z,100378.03
2023-09-27T16:46:43.999Z,100383.06
2023-09-27T16:49:48.357Z,100383.38
2023-09-27T16:52:51.229Z,100383.22
2023-09-27T16:55:54.155Z,100379.13
2023-09-27T16:58:57.363Z,100384.63
2023-09-27T17:02:00.415Z,100374.06
2023-09-27T17:05:05.370Z,100387.47
2023-09-27T17:08:08.532Z,100381.41
2023-09-27T17:11:11.462Z,100381.97
2023-09-27T17:14:14.366Z,100378.28
2023-09-27T17:17:17.200Z,100383.78
2023-09-27T17:20:21.758Z,100390.41
2023-09-27T17:23:24.670Z,100388.72
2023-09-27T17:29:47.913Z,100382.94
2023-09-27T17:32:50.818Z,100377.44
2023-09-27T17:35:55.097Z,100381.69
2023-09-27T17:38:59.373Z,100378.13
2023-09-27T17:42:02.480Z,100385.94
2023-09-27T17:45:05.728Z,100383.38
2023-09-27T17:48:08.961Z,100384.94
2023-09-27T17:51:14.575Z,100388.72
2023-09-27T17:54:17.402Z,100388.47
2023-09-27T17:57:20.569Z,100393.25
2023-09-27T18:00:23.358Z,100383.22
2023-09-27T18:03:26.336Z,100370.81
2023-09-27T18:06:30.754Z,100380.56
2023-09-27T18:09:35.748Z,100386.19
2023-09-27T18:12:38.597Z,100379.84
2023-09-27T18:15:41.533Z,100390.28
2023-09-27T18:18:45.213Z,100383.22
2023-09-27T18:21:50.089Z,100380.56
2023-09-27T18:24:53.051Z,100385.75
2023-09-27T18:27:57.110Z,100386.59
2023-09-27T18:31:00.044Z,100381.53
2023-09-27T18:34:02.901Z,100381.38
2023-09-27T18:37:07.102Z,100377.03
2023-09-27T18:40:10.402Z,100385.59
2023-09-27T18:43:16.669Z,100382.94
2023-09-27T18:46:20.265Z,100385.03
2023-09-27T18:49:23.707Z,100380.13
2023-09-27T18:52:27.955Z,100384.75
2023-09-27T18:55:30.854Z,100379.97
2023-09-27T18:58:33.760Z,100385.59
2023-09-27T19:01:36.872Z,100387.59
2023-09-27T19:04:39.776Z,100398.16
2023-09-27T19:07:44.012Z,100394.94
2023-09-27T19:10:48.115Z,100398.59
2023-09-27T19:13:51.086Z,100401.28
2023-09-27T19:16:54.353Z,100398.59
2023-09-27T19:19:57.254Z,100396.06
2023-09-27T19:23:01.900Z,100406.75
2023-09-27T19:26:04.792Z,100405.66
2023-09-27T19:29:07.688Z,100399.72
2023-09-27T19:32:10.555Z,100398.88
2023-09-27T19:35:15.731Z,100397.19
2023-09-27T19:38:20.204Z,100399.56
2023-09-27T19:41:29.060Z,100400.88
2023-09-27T19:44:31.906Z,100400.44
2023-09-27T19:47:36.504Z,100400.16
2023-09-27T19:50:40.835Z,100405.78
2023-09-27T19:53:47.485Z,100398.91
2023-09-27T19:56:50.414Z,100401.72
2023-09-27T19:59:53.435Z,100394.66
2023-09-27T20:02:56.319Z,100394.94
2023-09-27T20:05:59.186Z,100390.72
2023-09-27T20:09:03.409Z,100390.00
2023-09-27T20:12:06.472Z,100391.13
2023-09-27T20:15:12.729Z,100395.63
2023-09-27T20:18:15.576Z,100393.81
2023-09-27T20:21:18.458Z,100395.22
2023-09-27T20:24:22.729Z,100392.69
2023-09-27T20:27:25.566Z,100401.72
2023-09-27T20:30:28.476Z,100389.44
2023-09-27T20:33:31.341Z,100397.31
2023-09-27T20:36:34.237Z,100389.03
2023-09-27T20:39:39.613Z,100393.53
2023-09-27T20:42:42.455Z,100404.25
2023-09-27T20:45:45.267Z,100405.09
2023-09-27T20:48:48.374Z,100396.78
2023-09-27T20:51:51.219Z,100402.13
2023-09-27T20:54:55.460Z,100403.53
2023-09-27T20:58:01.921Z,100401.56
2023-09-27T21:01:08.253Z,100391.84
2023-09-27T21:04:12.344Z,100397.06
2023-09-27T21:07:15.210Z,100394.38
2023-09-27T21:10:19.542Z,100388.00
2023-09-27T21:13:22.431Z,100383.78
2023-09-27T21:16:25.656Z,100391.53
2023-09-27T21:19:28.605Z,100388.47
2023-09-27T21:22:31.403Z,100396.66
2023-09-27T21:25:35.744Z,100383.38
2023-09-27T21:28:39.630Z,100390.28
2023-09-27T21:31:43.481Z,100393.97
2023-09-27T21:34:48.000Z,100389.56
2023-09-27T21:37:52.027Z,100391.13
2023-09-27T21:40:56.393Z,100387.59
2023-09-27T21:43:59.298Z,100400.72
2023-09-27T21:47:02.275Z,100400.28
2023-09-27T21:50:07.122Z,100400.59
2023-09-27T21:53:11.238Z,100396.22
2023-09-27T21:56:15.891Z,100402.41
2023-09-27T21:59:18.802Z,100398.75
2023-09-27T22:02:21.622Z,100399.88
2023-09-27T22:05:24.549Z,100398.06
2023-09-27T22:08:27.325Z,100401.72
2023-09-27T22:11:31.682Z,100399.56
2023-09-27T22:14:36.414Z,100400.56
2023-09-27T22:17:39.389Z,100401.00
2023-09-27T22:20:45.853Z,100409.03
2023-09-27T22:23:48.797Z,100402.69
2023-09-27T22:26:54.301Z,100399.88
2023-09-27T22:29:57.421Z,100402.84
2023-09-27T22:33:04.573Z,100395.63
2023-09-27T22:36:07.618Z,100399.16
2023-09-27T22:39:12.594Z,100401.16
2023-09-27T22:42:18.371Z,100393.22
2023-09-27T22:45:31.715Z,100397.59
2023-09-27T22:48:34.705Z,100397.47
2023-09-27T22:51:39.991Z,100399.56
2023-09-27T22:54:43.628Z,100396.06
2023-09-27T22:57:50.228Z,100396.91
2023-09-27T23:00:58.525Z,100397.00
2023-09-27T23:04:01.646Z,100390.25
2023-09-27T23:07:05.597Z,100396.31
2023-09-27T23:10:13.235Z,100392.09
2023-09-27T23:13:36.049Z,100391.09
2023-09-27T23:16:47.074Z,100397.47
2023-09-27T23:19:50.057Z,100396.75
2023-09-27T23:22:58.047Z,100392.38
2023-09-27T23:26:01.997Z,100392.38
2023-09-27T23:29:20.126Z,100391.53
2023-09-27T23:32:24.740Z,100387.31
2023-09-27T23:35:31.241Z,100384.47
2023-09-27T23:38:57.273Z,100391.81
2023-09-27T23:42:03.047Z,100400.00
2023-09-27T23:45:10.554Z,100391.22
2023-09-27T23:48:13.569Z,100384.91
2023-09-27T23:51:16.685Z,100401.00
2023-09-27T23:54:19.506Z,100385.19
2023-09-27T23:57:28.298Z,100384.19
